LEAB/ABC METAR and TAF weather

Enter ICAO airport designator
Station Type Date Time Source
LEAB METAR 2019/02/21 16:00 UTC NOAA

LEAB 211600Z 16008KT 130V200 CAVOK 16/00 Q1028 NOSIG


Station Type Date Time Source
LEAB Decoded METAR 2019/02/21 16:00 UTC NOAA

Albacete / Los Llanos, Spain (LEAB) 38-57N 001-51W 704M
Feb 21, 2019 - 11:00 AM EST / 2019.02.21 1600 UTC
Wind: from the SSE (160 degrees) at 9 MPH (8 KT) (direction variable):0
Visibility: greater than 7 mile(s):0
Temperature: 60 F (16 C)
Dew Point: 32 F (0 C)
Relative Humidity: 33%
Pressure (altimeter): 30.36 in. Hg (1028 hPa)
ob: LEAB 211600Z 16008KT 130V200 CAVOK 16/00 Q1028 NOSIG
cycle: 16

Station Type Date Time Source
LEAB TAF 2018/04/26 18:51 UTC NOAA

TAF
AMD LEAB 261747Z 2618/2706 16012KT 9999 FEW040
BECMG 2704/2706 27015KT
TEMPO 2704/2706 BKN014


Example: see airport list